Observations for ALBENGA, Italy (LIMG)

LIMG 191750Z 00000KT 9999 BKN020 18/18 Q1014
LIMG 191650Z 19004KT 9999 BKN020 20/20 Q1014
LIMG 191550Z 27006KT 9999 BKN020 18/18 Q1013
LIMG 191450Z 31006KT 9999 SCT020 BKN030 17/17 Q1013 
LIMG 191350Z VRB03KT 9999 SCT025 BKN035 17/17 Q1013 
LIMG 191250Z 00000KT 9999 BKN025 16/16 Q1014 RETSRA 
LIMG 191150Z 21008G25KT 6000 TSRA BKN020 20/19 Q1014
LIMG 191130Z 18014KT 9999 TS BKN020 20/19 Q1013
LIMG 191050Z 00000KT 9999 BKN025 18/18 Q1014 RERA   
LIMG 191020Z VRB03KT 9999 RA BKN025 18/18 Q1014
LIMG 190950Z 34006KT 9999 BKN025 18/// Q1015 RERA   
LIMG 190905Z 00000KT 9999 RA BKN025 17/// Q1014
LIMG 190850Z 32005KT 9999 -RA BKN025 17/// Q1014
LIMG 190750Z 00000KT 9999 BKN025 16/// Q1014
LIMG 190650Z 32004KT 9999 BKN025 16/// Q1014
LIMG 190600Z VRB03KT 9999 SCT020 BKN035 15/// Q1014